»·PEaware :: N129DQ KPAE-KBOI

N129DQ :: KPAE-KBOI

FLIGHT INFORMATION

Flight Status: Arrived
Operator: Privately registered:
United States
More flights under this callsign
Pilot: Doug M. (13043)
Aircraft: ECLIPSE 500
(EA50)
More flights by this aircraft type
Origin: KPAE Snohomish Co
United States
Destination: KBOI Boise Air Terminal/Gowen
United States
More flights between these airports :: More routes between these airports
Route:
File this flight plan on PilotEdge
Remarks:
Altitude:
(Current/Filed)
15,500ft
Speed:
(Current/Filed)
282kts
Departed: 03-Sep-18 09:37 AM
Arrived: 03-Sep-18 10:57 AM
Distance/Time
Traveled:
363nm/1:19
Distance/Time
To Go:
Arrived

Flight Plot

Page will automatically refresh every two minutes.

Flight plan parsing failed; only flown route is shown


Map Options




Map Legend


Flown Route
Filed Route
Departure Airport
Arrival Airport
Navaid (VOR, NDB)
Fix

Horizontal Profiles

Position Reports

Time Latitude Longitude Heading Altitude Ground
Speed
03-Sep-18 09:28 47.903634 -122.280328 276 564ft 0kts
03-Sep-18 09:29 47.903634 -122.280328 276 564ft 0kts
03-Sep-18 09:30 47.903634 -122.280328 276 564ft 0kts
03-Sep-18 09:31 47.903696 -122.281363 271 564ft 10kts
03-Sep-18 09:32 47.905011 -122.282372 359 564ft 0kts
03-Sep-18 09:33 47.906074 -122.282486 307 564ft 10kts
03-Sep-18 09:34 47.912368 -122.283481 1 564ft 37kts
03-Sep-18 09:35 47.920954 -122.284071 354 564ft 18kts
03-Sep-18 09:36 47.921472 -122.284497 284 564ft 0kts
03-Sep-18 09:37 47.921495 -122.284661 279 564ft 10kts
03-Sep-18 09:38 47.897711 -122.283581 171 1485ft 159kts
03-Sep-18 09:39 47.876336 -122.219073 104 4341ft 207kts
03-Sep-18 09:40 47.856464 -122.121509 106 4509ft 272kts
03-Sep-18 09:41 47.832787 -122.014782 107 5086ft 251kts
03-Sep-18 09:42 47.813523 -121.930371 107 7055ft 216kts
03-Sep-18 09:43 47.793578 -121.843858 107 9050ft 227kts
03-Sep-18 09:44 47.776065 -121.768483 107 10723ft 236kts
03-Sep-18 09:45 47.754012 -121.674050 107 12727ft 249kts
03-Sep-18 09:46 47.730425 -121.573371 108 14736ft 266kts
03-Sep-18 09:47 47.705383 -121.467212 108 16481ft 289kts
03-Sep-18 09:48 47.681943 -121.368347 108 16518ft 342kts
03-Sep-18 09:49 47.649258 -121.231160 109 16507ft 365kts
03-Sep-18 09:50 47.615333 -121.089718 109 16507ft 365kts
03-Sep-18 09:51 47.580538 -120.945548 109 16509ft 377kts
03-Sep-18 09:52 47.544994 -120.799241 109 16039ft 373kts
03-Sep-18 09:53 47.512873 -120.667678 110 15380ft 366kts
03-Sep-18 09:54 47.485414 -120.556048 110 15374ft 366kts
03-Sep-18 09:55 47.450467 -120.414682 110 15375ft 366kts
03-Sep-18 09:57 47.415054 -120.272295 110 15371ft 381kts
03-Sep-18 09:58 47.346801 -120.163526 147 15372ft 367kts
03-Sep-18 09:59 47.264589 -120.078063 149 15368ft 344kts
03-Sep-18 10:00 47.184345 -119.998156 150 15372ft 351kts
03-Sep-18 10:01 47.103218 -119.918356 150 14931ft 347kts
03-Sep-18 10:02 47.024079 -119.840929 150 13940ft 339kts
03-Sep-18 10:03 46.946290 -119.765119 150 12947ft 332kts
03-Sep-18 10:04 46.870234 -119.691195 150 11960ft 327kts
03-Sep-18 10:05 46.795227 -119.618629 150 11375ft 323kts
03-Sep-18 10:06 46.720437 -119.546468 150 11399ft 323kts
03-Sep-18 10:07 46.645142 -119.474080 150 11392ft 323kts
03-Sep-18 10:08 46.570065 -119.402147 150 11393ft 323kts
03-Sep-18 10:09 46.495038 -119.330496 151 11389ft 324kts
03-Sep-18 10:10 46.420146 -119.259224 151 11388ft 324kts
03-Sep-18 10:11 46.345147 -119.188072 151 11390ft 322kts
03-Sep-18 10:12 46.269475 -119.120920 169 11392ft 314kts
03-Sep-18 10:13 46.184360 -119.091222 171 11493ft 316kts
03-Sep-18 10:14 46.099212 -119.063735 172 11499ft 314kts
03-Sep-18 10:15 46.013866 -119.036821 172 11491ft 314kts
03-Sep-18 10:16 45.928563 -119.010145 172 11491ft 314kts
03-Sep-18 10:17 45.843258 -118.983588 172 11492ft 315kts
03-Sep-18 10:18 45.758070 -118.957160 172 11509ft 314kts
03-Sep-18 10:19 45.678502 -118.907068 142 11509ft 326kts
03-Sep-18 10:20 45.610918 -118.819915 140 11510ft 327kts
03-Sep-18 10:21 45.544371 -118.731709 139 11512ft 327kts
03-Sep-18 10:22 45.477778 -118.643069 139 11565ft 327kts
03-Sep-18 10:23 45.411285 -118.554700 139 11566ft 327kts
03-Sep-18 10:24 45.343795 -118.465286 139 11566ft 337kts
03-Sep-18 10:25 45.274887 -118.374269 139 11567ft 339kts
03-Sep-18 10:26 45.208243 -118.286615 139 11855ft 327kts
03-Sep-18 10:27 45.152896 -118.213723 141 13521ft 232kts
03-Sep-18 10:28 45.103511 -118.149303 140 13051ft 263kts
03-Sep-18 10:29 45.047647 -118.076468 139 11059ft 274kts
03-Sep-18 10:30 44.992792 -118.005028 139 9072ft 266kts
03-Sep-18 10:31 44.946637 -117.945058 139 7522ft 252kts
03-Sep-18 10:32 44.899297 -117.883727 139 7415ft 259kts
03-Sep-18 10:33 44.849279 -117.819050 139 6407ft 230kts
03-Sep-18 10:34 44.802232 -117.758813 139 5973ft 229kts
03-Sep-18 10:35 44.761760 -117.707149 139 6032ft 226kts
03-Sep-18 10:36 44.718001 -117.651360 139 8041ft 214kts
03-Sep-18 10:37 44.672687 -117.593795 139 9469ft 242kts
03-Sep-18 10:38 44.616160 -117.522134 139 9474ft 285kts
03-Sep-18 10:39 44.556707 -117.446919 139 9473ft 288kts
03-Sep-18 10:40 44.497159 -117.371820 139 9474ft 288kts
03-Sep-18 10:41 44.437842 -117.297232 140 9490ft 288kts
03-Sep-18 10:42 44.378057 -117.222284 140 9499ft 290kts
03-Sep-18 10:43 44.317751 -117.146891 139 9105ft 289kts
03-Sep-18 10:44 44.258846 -117.073472 139 8102ft 283kts
03-Sep-18 10:45 44.200276 -117.000670 139 7106ft 281kts
03-Sep-18 10:45 44.151944 -116.940770 139 6275ft 277kts
03-Sep-18 10:47 44.085548 -116.858658 138 5503ft 273kts
03-Sep-18 10:48 44.028884 -116.788750 138 5501ft 272kts
03-Sep-18 10:48 43.981635 -116.730639 138 5501ft 273kts
03-Sep-18 10:49 43.924842 -116.660933 138 5501ft 272kts
03-Sep-18 10:50 43.868242 -116.592019 140 5499ft 272kts
03-Sep-18 10:52 43.804276 -116.516672 140 5381ft 256kts
03-Sep-18 10:52 43.761557 -116.466506 140 4538ft 216kts
03-Sep-18 10:53 43.719652 -116.415844 137 3902ft 197kts
03-Sep-18 10:54 43.677927 -116.365053 137 3900ft 199kts
03-Sep-18 10:55 43.632887 -116.335703 163 3901ft 181kts
03-Sep-18 10:56 43.596280 -116.301012 136 3833ft 133kts
03-Sep-18 10:57 43.577445 -116.264485 111 3221ft 105kts
03-Sep-18 10:58 43.566639 -116.232625 114 2841ft 37kts
03-Sep-18 10:59 43.563547 -116.225446 196 2841ft 12kts
03-Sep-18 11:00 43.563469 -116.225477 196 2841ft 0kts
03-Sep-18 11:01 43.564863 -116.233534 139 2841ft 13kts
03-Sep-18 11:02 43.564953 -116.232695 22 2841ft 0kts
03-Sep-18 11:03 43.564953 -116.232695 22 2841ft 0kts
03-Sep-18 11:04 43.564953 -116.232695 22 2841ft 0kts

Navigation Log

Ident Type
Flight plan parsing failed, navigation log unavailable